Date,TemperatureHighF,TemperatureAvgF,TemperatureLowF,DewpointHighF,DewpointAvgF,DewpointLowF,HumidityHigh,HumidityAvg,HumidityLow,PressureMaxIn,PressureMinIn,WindSpeedMaxMPH,WindSpeedAvgMPH,GustSpeedMaxMPH,PrecipitationSumIn
2014-1-1,5,-3,-6,1,-5,-7,95,91,80,0.00,40.00,6,2,7,0.00
2014-1-2,9,-4,-17,9,-5,-17,99,94,81,0.00,40.00,9,3,17,0.00
2014-1-3,41,24,9,39,22,9,99,96,83,0.00,40.00,19,7,28,0.00
2014-1-4,17,2,-7,16,-4,-100,95,80,69,0.00,40.00,18,9,24,0.00
2014-1-5,-8,-13,-16,-11,-17,-22,90,81,67,0.00,40.00,21,11,28,0.00
2014-1-6,-2,-12,-19,-5,-15,-22,89,83,75,0.00,40.00,14,6,19,0.00
2014-1-7,7,3,-1,2,0,-4,98,88,75,0.00,40.00,7,3,8,0.00
2014-1-8,14,1,-13,14,-1,-14,99,92,84,0.00,40.00,9,4,14,0.00
2014-1-9,26,20,15,23,19,14,99,97,87,0.00,40.00,8,4,13,0.00
2014-1-10,38,29,24,29,25,22,99,85,59,0.00,40.00,12,4,15,0.00
2014-1-11,35,26,16,31,21,-100,99,88,69,0.00,40.00,9,5,11,0.00
2014-1-12,43,36,27,36,32,25,97,83,58,0.00,40.00,18,9,25,0.00
2014-1-13,37,29,20,35,27,19,99,93,79,0.00,40.00,14,5,23,0.00
2014-1-14,27,18,9,25,13,7,94,80,57,0.00,40.00,21,11,30,0.00
2014-1-15,42,29,9,36,25,8,99,84,67,0.00,40.00,25,13,35,0.00
2014-1-16,37,22,13,30,17,8,92,79,70,0.00,40.00,26,15,36,0.00
2014-1-17,37,22,11,34,21,10,99,94,76,0.00,40.00,21,4,28,0.00
2014-1-18,38,34,30,35,30,-100,99,89,80,0.00,40.00,22,10,29,0.00
2014-1-19,44,38,33,33,32,30,95,80,64,0.00,40.00,19,9,24,0.00
2014-1-20,34,12,-4,33,9,-11,99,89,54,0.00,40.00,19,7,24,0.00
2014-1-21,27,14,-3,26,13,-4,99,94,90,0.00,40.00,17,8,26,0.00
2014-1-22,24,4,-8,22,2,-9,98,88,72,0.00,40.00,12,7,17,0.00
2014-1-23,31,7,-12,23,3,-13,96,86,69,0.00,40.00,12,5,18,0.00
2014-1-24,42,36,32,38,34,25,99,92,74,0.00,40.00,15,10,23,0.00
2014-1-25,40,23,13,37,18,-100,99,85,62,0.00,40.00,20,8,29,0.00
2014-1-26,36,13,-8,34,11,-12,99,91,77,0.00,40.00,19,11,27,0.00
2014-1-27,0,-6,-11,-8,-11,-15,86,78,68,0.00,40.00,12,7,17,0.00
2014-1-28,11,-1,-10,1,-6,-13,91,79,59,0.00,40.00,16,6,17,0.00
2014-1-29,31,19,6,22,13,3,96,79,66,0.00,40.00,12,6,16,0.00
2014-1-30,15,6,-2,13,3,-3,97,89,75,0.00,40.00,12,7,19,0.00
2014-1-31,21,7,-6,14,4,-7,99,88,66,0.00,40.00,14,4,18,0.00
2014-2-1,11,6,1,7,1,-100,93,84,72,0.00,40.00,17,7,21,0.00
2014-2-2,22,11,2,12,7,0,93,83,62,0.00,40.00,13,5,14,0.00
2014-2-3,18,9,-1,10,4,-6,92,82,71,0.00,40.00,9,2,12,0.00
2014-2-4,8,1,-4,3,-4,-7,92,83,61,0.00,40.00,9,3,12,0.00
2014-2-5,2,-2,-6,-4,-5,-8,91,83,76,0.00,40.00,12,6,17,0.00
2014-2-6,6,0,-8,1,-4,-9,95,84,70,0.00,40.00,19,10,23,0.00
2014-2-7,17,2,-6,0,-6,-11,82,70,47,0.00,40.00,9,4,11,0.00
2014-2-8,13,3,-5,4,-1,-5,99,85,66,0.00,40.00,7,3,10,0.00
2014-2-9,4,-2,-8,-2,-6,-10,99,87,68,0.00,40.00,10,4,13,0.00
2014-2-10,11,-2,-13,1,-5,-14,97,86,64,0.00,40.00,9,4,10,0.00
2014-2-11,36,18,2,27,14,2,99,87,69,0.00,40.00,11,6,17,0.00
2014-2-12,29,12,-1,29,9,-2,98,90,79,0.00,40.00,11,6,14,0.00
2014-2-13,38,12,1,34,8,-2,93,82,66,0.00,40.00,15,8,27,0.00
2014-2-14,21,13,1,19,10,0,96,88,70,0.00,40.00,9,4,12,0.00
2014-2-15,27,17,5,26,14,-100,99,94,89,0.00,40.00,12,6,16,0.00
2014-2-16,21,12,2,20,11,1,99,96,87,0.00,40.00,12,6,18,0.00
2014-2-17,44,34,21,32,27,21,99,76,50,0.00,40.00,15,6,19,0.00
2014-2-18,42,34,28,36,30,27,98,86,61,0.00,40.00,13,6,15,0.00
2014-2-19,46,33,23,35,29,23,99,86,56,0.00,40.00,12,5,14,0.00
2014-2-20,35,22,11,29,18,10,95,86,75,0.00,40.00,21,8,26,0.00
2014-2-21,21,11,2,8,5,1,97,77,51,0.00,40.00,11,4,16,0.00
2014-2-22,19,11,5,9,3,-100,85,73,63,0.00,40.00,14,7,19,0.00
2014-2-23,16,8,1,6,3,-3,97,80,62,0.00,40.00,11,5,16,0.00
2014-2-24,6,-1,-8,2,-4,-10,92,86,73,0.00,40.00,11,4,14,0.00
2014-2-25,6,-2,-8,-1,-6,-9,95,84,70,0.00,40.00,12,5,16,0.00
2014-2-26,23,8,-7,6,1,-9,93,73,48,0.00,40.00,25,8,29,0.00
2014-2-27,16,5,-8,6,0,-12,96,80,62,0.00,40.00,10,4,14,0.00
2014-2-28,12,4,-6,9,0,-12,94,81,69,0.00,40.00,20,8,29,0.00
2014-3-1,-7,-11,-16,-13,-20,-100,79,69,62,0.00,40.00,14,8,19,0.00
2014-3-2,7,-3,-14,-8,-13,-18,85,64,46,0.00,40.00,10,5,14,0.00
2014-3-3,14,8,3,3,-1,-6,75,67,61,0.00,40.00,9,6,11,0.00
2014-3-4,13,11,9,11,9,3,99,92,76,0.00,40.00,10,7,13,0.00
2014-3-5,13,11,11,13,11,11,99,99,99,0.00,40.00,8,5,11,0.00
2014-3-6,43,35,24,37,32,23,99,88,67,0.00,40.00,9,5,13,0.00
2014-3-7,21,17,11,20,12,-2,99,84,49,0.00,40.00,11,6,19,0.00
2014-3-8,44,28,16,36,23,13,93,82,69,0.00,40.00,10,5,13,0.00
2014-3-11,44,37,29,35,31,28,97,79,67,0.00,40.00,11,5,17,0.00
2014-3-12,53,39,26,35,31,26,99,77,43,0.00,40.00,19,5,21,0.00
2014-3-13,59,45,35,35,33,30,89,66,39,0.00,40.00,17,7,22,0.00
2014-3-14,44,37,30,34,32,28,99,84,54,0.00,40.00,16,10,20,0.00
2014-3-15,29,24,19,29,17,-100,99,82,60,0.00,40.00,14,8,16,0.00
2014-3-16,40,28,19,38,25,15,99,90,80,0.00,40.00,16,7,22,0.00
2014-3-17,48,38,31,43,36,31,100,95,68,0.00,40.00,11,4,13,0.00
2014-3-18,40,34,30,37,32,29,99,95,69,0.00,40.00,11,5,17,0.00
2014-3-19,46,33,23,36,27,23,99,83,43,0.00,40.00,16,4,20,0.00
2014-3-20,55,39,28,37,29,-100,99,76,36,0.00,40.00,13,5,17,0.00
2014-3-21,36,26,16,36,21,-100,99,87,62,0.00,40.00,16,9,24,0.00
2014-3-22,22,14,7,12,5,-100,96,72,47,0.00,40.00,11,6,16,0.00
2014-3-23,35,21,9,24,12,8,99,73,40,0.00,40.00,8,3,12,0.00
2014-3-24,30,21,15,21,13,6,99,73,43,0.00,40.00,26,8,31,0.00
2014-3-25,32,20,9,12,8,5,99,64,34,0.00,40.00,14,6,19,0.00
2014-3-26,40,31,23,28,18,10,91,59,49,0.00,40.00,12,7,16,0.00
2014-3-27,35,28,22,28,19,11,99,71,44,0.00,40.00,11,8,16,0.00
2014-3-28,33,25,16,24,16,8,82,68,43,0.00,40.00,14,6,15,0.00
2014-3-29,62,43,24,32,26,-100,99,60,28,0.00,40.00,9,6,16,0.00
2014-3-30,52,42,29,39,36,29,99,80,56,0.00,40.00,18,8,23,0.00
2014-3-31,26,18,13,26,15,7,99,90,69,0.00,40.00,22,14,27,0.00
2014-4-1,28,17,3,10,5,-100,88,64,42,0.00,40.00,11,5,17,0.00
2014-4-2,32,24,15,27,19,11,99,83,56,0.00,40.00,11,5,12,0.00
2014-4-3,35,30,25,33,28,25,99,94,80,0.00,40.00,11,6,15,0.00
2014-4-4,40,32,26,31,28,25,95,86,65,0.00,40.00,8,4,11,0.00
2014-4-5,54,39,26,38,30,-100,99,78,49,0.00,40.00,9,4,17,0.00
2014-4-6,58,43,29,42,34,29,99,77,38,0.00,40.00,17,5,21,0.00
2014-4-7,55,41,29,40,33,28,99,75,44,0.00,40.00,15,6,32,0.00
2014-4-8,67,46,27,41,32,27,99,67,31,0.00,40.00,13,5,17,0.00
2014-4-9,73,55,43,41,39,36,84,60,30,0.00,40.00,27,8,34,0.00
2014-4-10,61,47,34,35,29,26,91,54,30,0.00,40.00,17,6,21,0.00
2014-4-11,62,48,31,39,30,26,99,56,28,0.00,40.00,14,4,19,0.00
2014-4-12,56,44,34,45,36,-100,99,80,50,0.00,40.00,21,9,26,0.00
2014-4-13,36,30,22,32,20,13,99,70,42,0.00,40.00,15,9,22,0.00
2014-4-14,33,26,21,24,18,10,99,76,44,0.00,40.00,12,4,18,0.00
2014-4-15,44,30,19,22,17,11,82,61,42,0.00,40.00,22,11,29,0.00
2014-4-16,37,31,27,28,23,16,97,74,47,0.00,40.00,18,12,26,0.00
2014-4-17,46,35,24,26,21,15,82,58,41,0.00,40.00,12,7,14,0.00
2014-4-18,64,46,34,44,33,25,80,62,47,0.00,40.00,21,13,29,0.00
2014-4-19,62,50,38,45,36,-100,99,64,36,0.00,40.00,23,9,28,0.00
2014-4-20,75,56,34,42,36,26,99,55,25,0.00,40.00,22,7,26,0.00
2014-4-21,63,48,40,42,36,27,99,66,37,0.00,40.00,12,4,16,0.00
2014-4-22,70,53,32,36,34,32,99,56,27,0.00,40.00,18,8,24,0.00
2014-4-23,57,53,45,50,44,34,91,72,44,0.00,40.00,22,12,32,0.00
2014-4-24,62,56,43,35,30,26,74,38,27,0.00,40.00,18,11,24,0.00
2014-4-25,70,53,36,46,36,24,89,59,28,0.00,40.00,17,6,21,0.00
2014-4-26,61,48,40,46,39,-100,99,77,43,0.00,40.00,26,15,35,0.00
2014-4-27,46,42,37,42,40,37,99,95,76,0.00,40.00,22,14,29,0.00
2014-4-28,40,36,34,40,36,33,99,99,99,0.00,40.00,9,5,12,0.00
2014-4-29,54,41,33,39,32,26,99,75,39,0.00,40.00,15,6,27,0.00
2014-4-30,52,42,30,34,30,23,98,66,36,0.00,40.00,22,8,27,0.00
2014-5-1,63,48,32,34,30,25,86,55,28,0.00,40.00,16,6,24,0.00
2014-5-2,60,54,45,44,37,29,92,55,34,0.00,40.00,14,8,20,0.00
2014-5-3,52,44,37,41,31,-100,95,64,43,0.00,40.00,14,6,20,0.00
2014-5-4,44,39,34,35,30,25,97,70,55,0.00,40.00,11,6,17,0.00
2014-5-5,67,51,40,43,39,31,91,67,42,0.00,40.00,9,6,14,0.00
2014-5-6,67,54,45,50,47,44,99,80,53,0.00,40.00,16,10,18,0.00
2014-5-13,57,50,42,28,25,23,49,38,32,0.00,40.00,11,5,16,0.00
2014-5-14,54,43,31,33,26,19,95,56,30,0.00,40.00,14,6,20,0.00
2014-5-15,62,44,27,35,20,-100,99,57,24,0.00,40.00,11,4,12,0.00
2014-5-16,65,52,40,35,31,26,72,49,27,0.00,40.00,9,5,12,0.00
2014-5-17,69,53,32,39,33,-100,96,54,30,0.00,40.00,9,3,13,0.00
2014-5-18,74,62,46,53,46,39,79,57,42,0.00,40.00,12,7,17,0.00
2014-5-19,74,62,54,59,46,-100,98,66,39,0.00,40.00,16,9,22,0.00
2014-5-20,65,55,45,53,46,-100,99,77,52,0.00,40.00,21,8,26,0.00
2014-5-21,72,58,43,51,45,42,99,69,36,0.00,40.00,7,3,9,0.00
2014-5-22,78,62,46,52,46,-100,99,62,40,0.00,40.00,9,4,14,0.00
2014-5-23,89,74,61,64,56,51,74,57,30,0.00,40.00,9,6,12,0.00
2014-5-24,80,71,62,66,57,-100,99,69,13,0.00,40.00,11,6,14,0.00
2014-5-25,84,73,62,67,62,51,99,73,43,0.00,40.00,10,5,12,0.00
2014-5-26,81,69,62,67,61,20,99,82,13,0.00,40.00,10,6,11,0.00
2014-5-27,81,71,60,66,59,37,99,71,28,0.00,40.00,14,5,16,0.00
2014-5-28,88,72,54,65,59,45,99,69,39,0.00,40.00,11,4,16,0.00
2014-5-29,88,79,69,65,61,47,86,57,38,0.00,40.00,14,9,19,0.00
2014-5-30,76,64,59,66,60,44,99,89,37,0.00,40.00,17,5,26,0.00
2014-5-31,74,64,55,68,60,-100,99,90,71,0.00,40.00,10,3,13,0.00
2014-6-1,74,67,61,66,62,37,99,84,30,0.00,40.00,17,6,21,0.00
2014-6-2,63,57,53,61,56,53,99,98,91,0.00,40.00,17,6,21,0.00
2014-6-3,74,61,46,61,52,36,99,78,33,0.00,40.00,3,0,5,0.00
2014-6-4,80,68,57,65,59,49,99,75,49,0.00,40.00,14,4,19,0.00
2014-6-5,80,68,56,62,55,34,97,67,30,0.00,40.00,10,4,14,0.00
2014-6-6,58,53,50,58,50,45,99,90,69,0.00,40.00,6,2,11,0.00
2014-6-7,71,49,44,51,19,-100,99,69,15,0.00,40.00,4,1,7,0.00
2014-6-8,69,57,48,58,52,47,99,86,56,0.00,40.00,14,3,16,0.00
2014-6-9,77,63,45,57,48,44,99,67,32,0.00,40.00,12,5,19,0.00
2014-6-10,67,55,57,63,41,-100,99,88,62,0.00,40.00,9,2,12,0.00
2014-6-11,64,56,48,61,56,47,99,98,87,0.00,40.00,11,4,16,0.00
2014-6-12,73,58,42,52,44,40,99,68,34,0.00,40.00,11,3,12,0.00
2014-6-13,74,62,50,54,48,25,92,64,24,0.00,40.00,14,7,19,0.00
2014-6-14,68,60,55,67,56,-100,99,92,58,0.00,40.00,9,4,13,0.00
2014-6-15,68,58,49,55,52,48,99,80,49,0.00,40.00,19,6,23,0.00
2014-6-16,77,64,47,64,56,46,99,77,59,0.00,40.00,16,5,18,0.00
2014-6-17,79,69,59,66,61,34,99,78,23,0.00,40.00,17,11,24,0.00
2014-6-18,76,68,63,71,64,46,99,90,51,0.00,40.00,24,10,30,0.00
2014-6-19,78,65,58,63,56,28,99,79,24,0.00,40.00,7,3,9,0.00
2014-6-20,77,67,58,62,56,44,99,72,48,0.00,40.00,15,6,19,0.00
2014-6-21,88,74,59,67,55,-100,97,59,19,0.00,40.00,4,2,7,0.00
2014-6-22,74,63,53,61,48,-100,99,75,24,0.00,40.00,17,4,21,0.00
2014-6-23,78,64,53,65,59,37,99,85,29,0.00,40.00,11,2,14,0.00
2014-6-24,68,34,59,62,-14,-100,99,94,78,0.00,40.00,9,2,10,0.00
2014-6-25,78,58,56,66,38,-100,99,82,32,0.00,40.00,8,3,12,0.00
2014-6-26,85,46,67,74,-6,-100,99,78,19,0.00,40.00,9,3,13,0.00
2014-6-27,79,74,70,74,71,67,99,92,83,0.00,40.00,14,4,15,0.00
2014-6-28,70,64,61,69,60,-100,99,93,40,0.00,40.00,20,5,24,0.00
2014-6-29,78,69,62,63,56,52,99,66,40,0.00,40.00,30,17,38,0.00
2014-6-30,66,7,65,56,-84,-100,99,96,63,0.00,40.00,14,1,19,0.00
2014-7-1,67,24,54,56,-42,-100,99,86,49,0.00,40.00,14,3,26,0.00
2014-7-2,76,57,44,60,41,-100,99,75,31,0.00,40.00,4,2,6,0.00
2014-7-3,80,41,64,59,-12,-100,99,77,44,0.00,40.00,10,3,12,0.00
2014-7-4,86,73,63,78,68,46,99,85,27,0.00,40.00,11,7,16,0.00
2014-7-5,98,80,67,76,66,-100,99,69,31,0.00,40.00,7,2,9,0.00
2014-7-6,84,75,65,68,61,41,87,64,27,0.00,40.00,12,5,15,0.00
2014-7-7,71,64,60,67,57,-100,99,90,57,0.00,40.00,11,5,17,0.00
2014-7-8,78,60,59,65,41,-100,99,82,62,0.00,40.00,9,4,14,0.00
2014-7-9,82,37,68,68,-21,-100,99,83,46,0.00,40.00,7,2,9,0.00
2014-7-10,80,70,62,74,66,61,96,88,67,0.00,40.00,7,4,10,0.00
2014-7-11,84,51,65,74,41,43,99,76,34,0.00,40.00,6,2,12,0.00
2014-7-12,81,72,62,66,62,55,99,73,49,0.00,40.00,16,4,18,0.00
2014-7-13,74,66,54,60,50,45,99,63,37,0.00,40.00,11,5,16,0.00
2014-7-14,69,59,50,56,50,28,99,73,39,0.00,40.00,11,4,16,0.00
2014-7-15,79,62,45,59,51,44,99,71,39,0.00,40.00,6,2,7,0.00
2014-7-16,82,64,56,64,50,26,99,66,28,0.00,40.00,4,1,7,0.00
2014-7-17,84,73,56,64,57,40,99,63,26,0.00,40.00,7,4,11,0.00
2014-7-18,86,74,63,69,64,44,99,73,33,0.00,40.00,11,5,17,0.00
2014-7-19,82,68,54,67,58,54,99,73,49,0.00,40.00,8,3,12,0.00
2014-7-20,96,76,65,72,63,56,99,72,35,0.00,40.00,7,2,11,0.00
2014-7-21,89,78,64,81,70,44,99,78,29,0.00,40.00,11,4,12,0.00